Time;durP1;ratioP1;P1;durP2;ratioP2;P2;SDS_P1;SDS_P2;PMS_P1;PMS_P2;Temp;Humidity;BMP_temperature;BMP_pressure;BME280_temperature;BME280_humidity;BME280_pressure;Samples;Min_cycle;Max_cycle;Signal;HPM_P1;HPM_P2
2022/09/30 00:01:43;;;;;;;32.25;24.13;;;409.90;2355.20;;;;;;5056112;28;20074;-84
2022/09/30 00:04:13;;;;;;;37.78;26.05;;;410.00;2355.20;;;;;;5056027;28;20024;-84
2022/09/30 00:06:39;;;;;;;41.10;28.88;;;410.00;2355.20;;;;;;5056169;28;20051;-84
2022/09/30 00:09:05;;;;;;;33.70;27.17;;;409.70;2355.20;;;;;;5055903;28;20514;-84
2022/09/30 00:11:34;;;;;;;36.55;27.30;;;409.80;2355.20;;;;;;5055709;28;20372;-83
2022/09/30 00:14:01;;;;;;;39.95;30.58;;;409.90;2355.20;;;;;;5055927;28;20025;-83
2022/09/30 00:16:30;;;;;;;39.20;29.35;;;409.90;2355.20;;;;;;5055903;28;20032;-83
2022/09/30 00:18:57;;;;;;;35.72;27.13;;;409.70;2355.20;;;;;;5055941;28;20069;-83
2022/09/30 00:21:24;;;;;;;36.10;26.50;;;409.70;2355.20;;;;;;5055937;28;20029;-85
2022/09/30 00:23:50;;;;;;;32.92;25.95;;;409.90;2355.20;;;;;;5074023;28;20056;-84
2022/09/30 00:26:19;;;;;;;35.20;25.70;;;409.90;2355.20;;;;;;5035752;28;20037;-85
2022/09/30 00:28:48;;;;;;;28.67;24.50;;;409.90;2355.20;;;;;;5035617;28;20056;-85
2022/09/30 00:31:16;;;;;;;33.15;23.58;;;409.90;2355.20;;;;;;5034506;28;20101;-83
2022/09/30 00:33:42;;;;;;;31.55;24.45;;;410.00;2355.20;;;;;;5034947;28;20021;-83
2022/09/30 00:36:09;;;;;;;36.13;27.15;;;409.90;2355.20;;;;;;5034385;28;20088;-84
2022/09/30 00:38:35;;;;;;;33.45;22.52;;;409.70;2355.20;;;;;;5053554;28;20029;-84
2022/09/30 00:41:02;;;;;;;31.00;23.60;;;409.70;2355.20;;;;;;5035086;28;20115;-85
2022/09/30 00:43:41;;;;;;;34.95;25.92;;;409.80;2355.20;;;;;;5032106;28;20060;-84
2022/09/30 00:46:28;;;;;;;32.88;24.90;;;409.80;2355.20;;;;;;5033592;28;20018;-84
2022/09/30 00:48:57;;;;;;;29.90;22.95;;;409.80;2355.20;;;;;;5032385;28;20063;-84
2022/09/30 00:51:40;;;;;;;24.73;19.42;;;409.80;2355.20;;;;;;5033399;28;20021;-85
2022/09/30 00:54:08;;;;;;;;;;;409.70;2355.20;;;;;;5032956;28;20022;-85
2022/09/30 00:56:41;;;;;;;17.52;11.55;;;409.70;2355.20;;;;;;5065789;28;19932;-86
2022/09/30 00:59:23;;;;;;;16.25;10.20;;;409.70;2355.20;;;;;;5032404;28;20037;-85
2022/09/30 01:01:48;;;;;;;15.68;11.15;;;409.80;2355.20;;;;;;5032065;28;20036;-85
2022/09/30 01:04:19;;;;;;;29.00;19.38;;;409.90;2355.20;;;;;;5032361;28;20033;-84
2022/09/30 01:06:45;;;;;;;24.08;19.65;;;409.70;2355.20;;;;;;5032257;28;20129;-84
2022/09/30 01:09:11;;;;;;;32.08;24.33;;;409.70;2355.20;;;;;;5031981;28;20033;-85
2022/09/30 01:11:37;;;;;;;32.38;23.02;;;409.60;2355.20;;;;;;5032161;28;20076;-83
2022/09/30 01:14:25;;;;;;;38.47;26.10;;;409.70;2355.20;;;;;;5031923;28;20112;-84
2022/09/30 01:17:27;;;;;;;28.27;21.80;;;409.60;2355.20;;;;;;5032027;28;20565;-84
2022/09/30 01:20:16;;;;;;;29.33;21.60;;;409.60;2355.20;;;;;;5031900;28;20033;-84
2022/09/30 01:22:59;;;;;;;27.73;21.20;;;409.60;2355.20;;;;;;5036802;28;20026;-85
2022/09/30 01:25:51;;;;;;;30.13;21.13;;;409.60;2355.20;;;;;;5035767;28;20036;-84
2022/09/30 01:28:41;;;;;;;29.63;22.60;;;409.60;2355.20;;;;;;5013022;28;20060;-85
2022/09/30 01:31:41;;;;;;;32.88;23.73;;;409.60;2355.20;;;;;;5035776;28;20116;-85
2022/09/30 01:34:16;;;;;;;29.00;21.45;;;384.80;2329.60;;;;;;5036827;28;20061;-84
2022/09/30 01:37:00;;;;;;;29.83;19.85;;;384.90;2329.60;;;;;;5035254;28;20033;-85
2022/09/30 01:39:40;;;;;;;29.30;23.67;;;384.90;2329.60;;;;;;5035462;28;20112;-85
2022/09/30 01:42:27;;;;;;;28.67;21.10;;;384.70;2329.60;;;;;;5035493;28;20026;-82
2022/09/30 01:45:08;;;;;;;27.00;18.80;;;384.80;2329.60;;;;;;5035576;28;20037;-85
2022/09/30 01:48:20;;;;;;;26.58;18.50;;;384.90;2329.60;;;;;;5035506;28;20033;-85
2022/09/30 01:50:54;;;;;;;24.13;17.45;;;384.90;2329.60;;;;;;5035196;28;20032;-84
2022/09/30 01:53:51;;;;;;;26.75;19.60;;;384.90;2329.60;;;;;;5035321;28;20482;-84
2022/09/30 01:56:40;;;;;;;33.05;24.15;;;384.90;2329.60;;;;;;5035094;28;20029;-85
2022/09/30 01:59:42;;;;;;;43.42;28.83;;;384.80;2329.60;;;;;;5035593;28;20045;-85
2022/09/30 02:02:40;;;;;;;39.70;26.90;;;384.70;2329.60;;;;;;5025051;28;20040;-85
2022/09/30 02:05:14;;;;;;;38.65;28.08;;;384.80;2329.60;;;;;;5026631;28;20052;-84
2022/09/30 02:08:16;;;;;;;38.72;29.42;;;384.80;2329.60;;;;;;5034815;28;20033;-84
2022/09/30 02:10:57;;;;;;;32.33;24.90;;;384.70;2329.60;;;;;;5045101;28;20037;-85
2022/09/30 02:13:45;;;;;;;35.80;23.48;;;384.70;2329.60;;;;;;5055342;28;20044;-84
2022/09/30 02:16:16;;;;;;;27.38;20.85;;;384.70;2329.60;;;;;;5055382;28;20087;-84
2022/09/30 02:18:47;;;;;;;28.17;19.65;;;384.60;2329.60;;;;;;5054554;28;20036;-84
2022/09/30 02:21:15;;;;;;;27.95;21.52;;;;;;;;;;5054659;28;20061;-84
2022/09/30 02:23:42;;;;;;;30.85;20.88;;;;;;;;;;5054755;28;20064;-85
2022/09/30 02:26:12;;;;;;;24.77;18.70;;;;;;;;;;5038023;28;20558;-85
2022/09/30 02:28:42;;;;;;;26.70;18.40;;;;;;;;;;5034259;28;20052;-84
2022/09/30 02:31:10;;;;;;;25.33;19.13;;;384.70;2329.60;;;;;;5033314;28;20075;-84
2022/09/30 02:33:44;;;;;;;23.02;15.18;;;384.60;2329.60;;;;;;5033671;28;20030;-85
2022/09/30 02:36:30;;;;;;;18.92;14.07;;;384.60;2329.60;;;;;;5034492;28;20060;-85
2022/09/30 02:39:26;;;;;;;13.38;10.63;;;384.60;2329.60;;;;;;5033735;28;20072;-84
2022/09/30 02:42:01;;;;;;;11.50;8.85;;;384.60;2329.60;;;;;;5034778;28;20032;-86
2022/09/30 02:44:28;;;;;;;13.40;8.38;;;384.60;2329.60;;;;;;5034302;28;20059;-85
2022/09/30 02:46:57;;;;;;;10.43;7.45;;;384.70;2329.60;;;;;;5034094;28;20044;-84
2022/09/30 02:49:34;;;;;;;14.43;8.20;;;384.70;2329.60;;;;;;5034346;28;20029;-84
2022/09/30 02:52:10;;;;;;;10.50;7.78;;;384.70;2329.60;;;;;;5035277;28;20029;-85
2022/09/30 02:55:00;;;;;;;16.58;8.15;;;384.70;2329.60;;;;;;5034038;28;20033;-85
2022/09/30 02:57:33;;;;;;;11.88;7.50;;;384.70;2329.60;;;;;;5035286;28;20032;-84
2022/09/30 03:00:00;;;;;;;13.52;8.02;;;384.70;2329.60;;;;;;5034662;28;20025;-84
2022/09/30 03:02:27;;;;;;;12.68;8.38;;;384.70;2329.60;;;;;;5033938;28;20025;-84
2022/09/30 03:04:53;;;;;;;10.55;7.82;;;384.70;2329.60;;;;;;5034004;28;20383;-85
2022/09/30 03:07:19;;;;;;;10.13;7.25;;;384.80;2329.60;;;;;;5033444;28;20038;-85
2022/09/30 03:09:44;;;;;;;10.48;7.95;;;384.80;2329.60;;;;;;5033751;28;20029;-84
2022/09/30 03:12:26;;;;;;;12.18;7.22;;;384.80;2329.60;;;;;;5033893;28;20030;-84
2022/09/30 03:14:52;;;;;;;9.35;7.00;;;384.80;2329.60;;;;;;5033720;28;20091;-84
2022/09/30 03:17:44;;;;;;;10.45;6.80;;;384.90;2329.60;;;;;;5033589;28;20467;-85
2022/09/30 03:20:30;;;;;;;11.63;7.10;;;384.90;2329.60;;;;;;5030779;28;20029;-84
2022/09/30 03:23:29;;;;;;;10.10;7.05;;;384.90;2329.60;;;;;;5034801;28;20113;-85
2022/09/30 03:26:15;;;;;;;13.07;8.18;;;384.90;2329.60;;;;;;5033562;28;20034;-85
2022/09/30 03:28:55;;;;;;;10.43;7.47;;;384.90;2329.60;;;;;;5033713;28;20041;-84
2022/09/30 03:31:45;;;;;;;10.27;7.97;;;384.90;2329.60;;;;;;5033378;28;20026;-85
2022/09/30 03:34:26;;;;;;;9.98;6.78;;;384.90;2329.60;;;;;;5048072;28;20533;-85
2022/09/30 03:37:07;;;;;;;11.88;6.93;;;384.90;2329.60;;;;;;5065804;28;20032;-82
2022/09/30 03:40:10;;;;;;;9.02;6.63;;;384.90;2329.60;;;;;;5034051;28;20357;-84
2022/09/30 03:42:38;;;;;;;;;;;409.60;2355.20;;;;;;5029719;28;20033;-83
2022/09/30 03:45:15;;;;;;;13.98;8.25;;;409.60;2355.20;;;;;;5035920;28;19905;-83
2022/09/30 03:47:45;;;;;;;13.27;10.50;;;409.60;2355.20;;;;;;5036376;28;20049;-84
2022/09/30 03:50:15;;;;;;;22.10;17.23;;;384.90;2329.60;;;;;;5054626;28;20539;-82
2022/09/30 03:52:41;;;;;;;24.30;14.65;;;384.80;2329.60;;;;;;5036289;28;20083;-84
2022/09/30 03:55:10;;;;;;;23.42;15.70;;;384.60;2329.60;;;;;;5043782;28;20017;-82
2022/09/30 03:57:36;;;;;;;24.27;12.68;;;384.50;2329.60;;;;;;5061131;28;20013;-83
2022/09/30 04:00:04;;;;;;;12.73;8.88;;;384.60;2329.60;;;;;;5061103;28;20009;-83
2022/09/30 04:02:30;;;;;;;14.48;8.85;;;384.60;2329.60;;;;;;5075859;28;20029;-81
2022/09/30 04:04:56;;;;;;;14.77;10.20;;;384.60;2329.60;;;;;;5054892;28;20016;-81
2022/09/30 04:07:21;;;;;;;13.95;9.02;;;384.60;2329.60;;;;;;5054248;28;20021;-83
2022/09/30 04:09:47;;;;;;;12.23;8.90;;;384.70;2329.60;;;;;;5060715;28;20035;-83
2022/09/30 04:12:13;;;;;;;15.35;9.48;;;384.70;2329.60;;;;;;5044328;28;20032;-84
2022/09/30 04:14:39;;;;;;;12.45;7.55;;;384.70;2329.60;;;;;;5036279;28;20481;-84
2022/09/30 04:17:05;;;;;;;11.50;7.65;;;384.80;2329.60;;;;;;5069292;28;20060;-84
2022/09/30 04:19:34;;;;;;;11.88;8.13;;;384.80;2329.60;;;;;;5036327;28;20483;-84
2022/09/30 04:22:00;;;;;;;9.85;7.05;;;384.80;2329.60;;;;;;5053982;28;20025;-84
2022/09/30 04:24:26;;;;;;;13.98;7.38;;;384.90;2329.60;;;;;;5035797;28;20051;-84
2022/09/30 04:26:52;;;;;;;10.48;7.20;;;384.90;2329.60;;;;;;5036447;28;20119;-84
2022/09/30 04:29:18;;;;;;;8.30;7.32;;;384.90;2329.60;;;;;;5035833;28;20481;-84
2022/09/30 04:31:43;;;;;;;10.43;7.53;;;384.90;2329.60;;;;;;5035661;28;20033;-84
2022/09/30 04:34:10;;;;;;;13.20;8.15;;;384.90;2329.60;;;;;;5036029;28;20584;-84
2022/09/30 04:36:37;;;;;;;11.45;7.65;;;409.60;2355.20;;;;;;5053436;28;20524;-84
2022/09/30 04:39:03;;;;;;;13.75;7.05;;;410.00;2355.20;;;;;;5035589;28;20041;-84
2022/09/30 04:41:31;;;;;;;12.85;7.68;;;384.90;2329.60;;;;;;5035764;28;20455;-84
2022/09/30 04:43:57;;;;;;;10.50;7.70;;;409.60;2355.20;;;;;;5035528;28;20421;-84
2022/09/30 04:46:23;;;;;;;10.57;8.02;;;409.60;2355.20;;;;;;5068669;28;20096;-84
2022/09/30 04:48:49;;;;;;;11.57;8.35;;;409.60;2355.20;;;;;;5035675;28;20494;-84
2022/09/30 04:51:16;;;;;;;11.93;7.82;;;409.60;2355.20;;;;;;5035371;28;20029;-84
2022/09/30 04:53:43;;;;;;;16.92;9.50;;;409.70;2355.20;;;;;;5035683;28;20029;-84
2022/09/30 04:56:09;;;;;;;11.88;8.30;;;409.70;2355.20;;;;;;5037274;28;20056;-84
2022/09/30 04:58:36;;;;;;;15.02;8.30;;;409.70;2355.20;;;;;;5039353;28;20495;-84
2022/09/30 05:01:07;;;;;;;14.82;8.02;;;409.70;2355.20;;;;;;5039632;28;20067;-84
2022/09/30 05:03:34;;;;;;;16.77;9.80;;;409.70;2355.20;;;;;;5039799;28;20124;-84
2022/09/30 05:06:00;;;;;;;16.08;9.45;;;409.70;2355.20;;;;;;5039127;28;20494;-84
2022/09/30 05:08:26;;;;;;;10.77;7.88;;;409.90;2355.20;;;;;;5039599;28;20463;-84
2022/09/30 05:10:57;;;;;;;11.45;7.65;;;409.90;2355.20;;;;;;5039466;28;20032;-84
2022/09/30 05:13:24;;;;;;;13.90;7.18;;;410.20;2355.20;;;;;;5039324;28;20048;-84
2022/09/30 05:15:50;;;;;;;9.07;6.70;;;410.00;2355.20;;;;;;5039288;28;20025;-84
2022/09/30 05:18:19;;;;;;;10.88;6.55;;;410.30;2355.20;;;;;;5056698;28;20033;-84
2022/09/30 05:20:49;;;;;;;9.68;7.80;;;410.20;2355.20;;;;;;5039192;28;20083;-84
2022/09/30 05:23:15;;;;;;;12.30;7.70;;;410.20;2355.20;;;;;;5039074;28;20025;-82
2022/09/30 05:25:41;;;;;;;9.73;7.18;;;410.20;2355.20;;;;;;5039078;28;20528;-84
2022/09/30 05:28:07;;;;;;;11.82;7.55;;;410.30;2355.20;;;;;;5056437;28;20033;-84
2022/09/30 05:30:33;;;;;;;7.53;6.15;;;410.30;2355.20;;;;;;5056817;28;20033;-84
2022/09/30 05:32:59;;;;;;;10.73;7.13;;;410.30;2355.20;;;;;;5037776;28;20390;-84
2022/09/30 05:35:25;;;;;;;8.63;7.15;;;410.30;2355.20;;;;;;5038764;28;20033;-84
2022/09/30 05:37:50;;;;;;;10.30;6.35;;;410.40;2355.20;;;;;;5037748;28;20119;-83
2022/09/30 05:40:16;;;;;;;10.18;7.03;;;;;;;;;;5038368;28;20026;-84
2022/09/30 05:42:43;;;;;;;10.77;6.30;;;;;;;;;;5071702;28;20021;-84
2022/09/30 05:45:10;;;;;;;11.57;7.75;;;;;;;;;;5072141;28;20028;-84
2022/09/30 05:47:36;;;;;;;12.57;8.15;;;;;;;;;;5056206;28;20040;-84
2022/09/30 05:50:02;;;;;;;10.75;7.43;;;;;;;;;;5071649;28;20025;-84
2022/09/30 05:52:28;;;;;;;12.77;7.20;;;;;;;;;;5071748;28;20024;-84
2022/09/30 05:54:56;;;;;;;10.63;7.82;;;435.50;2355.20;;;;;;5071520;28;20028;-84
2022/09/30 05:57:22;;;;;;;17.10;12.85;;;;;;;;;;5038407;28;20482;-84
2022/09/30 05:59:49;;;;;;;15.90;11.07;;;;;;;;;;5037967;28;20027;-84
2022/09/30 06:02:15;;;;;;;26.17;14.38;;;;;;;;;;5040331;28;20123;-84
2022/09/30 06:04:41;;;;;;;21.80;13.63;;;;;;;;;;5058132;28;20351;-84
2022/09/30 06:07:07;;;;;;;18.42;13.85;;;;;;;;;;5056638;28;20024;-83
2022/09/30 06:09:33;;;;;;;17.05;11.57;;;;;;;;;;5057706;28;20099;-84
2022/09/30 06:12:00;;;;;;;20.83;13.00;;;;;;;;;;5058168;28;20090;-83
2022/09/30 06:14:27;;;;;;;14.93;10.18;;;;;;;;;;5076021;28;20025;-84
2022/09/30 06:16:53;;;;;;;16.23;11.82;;;;;;;;;;5057780;28;20052;-84
2022/09/30 06:19:20;;;;;;;17.58;12.75;;;;;;;;;;5057946;28;20028;-84
2022/09/30 06:21:46;;;;;;;15.57;10.30;;;;;;;;;;5057995;28;20074;-84
2022/09/30 06:24:13;;;;;;;16.75;9.27;;;435.60;2355.20;;;;;;5057700;28;20159;-84
2022/09/30 06:26:41;;;;;;;14.80;8.05;;;435.60;2355.20;;;;;;5057952;28;20382;-85
2022/09/30 06:29:07;;;;;;;13.32;9.73;;;435.60;2355.20;;;;;;5057527;28;20025;-83
2022/09/30 06:31:33;;;;;;;18.67;13.80;;;;;;;;;;5057631;28;20032;-84
2022/09/30 06:34:00;;;;;;;27.15;21.88;;;;;;;;;;5058850;28;20025;-84
2022/09/30 06:36:28;;;;;;;20.52;15.57;;;;;;;;;;5037246;28;20025;-84
2022/09/30 06:38:54;;;;;;;13.95;11.05;;;;;;;;;;5036709;28;20049;-84
2022/09/30 06:41:24;;;;;;;13.20;10.43;;;;;;;;;;5037725;28;20526;-84
2022/09/30 06:43:50;;;;;;;12.40;9.90;;;;;;;;;;5037399;28;20049;-84
2022/09/30 06:46:16;;;;;;;12.63;9.13;;;;;;;;;;5054151;28;20052;-84
2022/09/30 06:48:42;;;;;;;18.17;11.82;;;;;;;;;;5054246;28;20132;-84
2022/09/30 06:51:09;;;;;;;16.48;10.40;;;;;;;;;;5054957;28;20025;-84
2022/09/30 06:53:38;;;;;;;32.22;25.27;;;;;;;;;;5037215;28;20029;-84
2022/09/30 06:56:04;;;;;;;38.05;23.25;;;;;;;;;;5053465;28;20025;-85
2022/09/30 06:58:30;;;;;;;23.63;19.63;;;;;;;;;;5042322;28;20108;-82
2022/09/30 07:01:02;;;;;;;19.27;13.13;;;461.00;2380.80;;;;;;5034415;28;20028;-82
2022/09/30 07:03:31;;;;;;;33.08;17.42;;;461.00;2380.80;;;;;;5032155;28;20033;-84
2022/09/30 07:05:58;;;;;;;28.25;17.98;;;461.10;2380.80;;;;;;5033144;28;20116;-83
2022/09/30 07:08:30;;;;;;;22.45;16.40;;;461.30;2380.80;;;;;;5033656;28;20373;-84
2022/09/30 07:10:59;;;;;;;18.20;13.43;;;461.40;2380.80;;;;;;5033606;28;20029;-84
2022/09/30 07:13:25;;;;;;;18.83;11.45;;;;;;;;;;5033807;28;20029;-83
2022/09/30 07:15:53;;;;;;;26.38;12.38;;;;;;;;;;5017208;28;20018;-83
2022/09/30 07:18:23;;;;;;;14.23;10.15;;;461.70;2380.80;;;;;;5016033;28;20025;-81
2022/09/30 07:20:50;;;;;;;17.90;11.35;;;486.40;2227.20;;;;;;5033285;28;20075;-80
2022/09/30 07:23:17;;;;;;;17.75;11.32;;;461.70;2278.40;;;;;;5032993;28;20057;-80
2022/09/30 07:25:55;;;;;;;15.70;10.55;;;461.70;2380.80;;;;;;5016380;28;20036;-81
2022/09/30 07:28:28;;;;;;;12.55;9.95;;;461.70;2380.80;;;;;;5033140;28;20127;-82
2022/09/30 07:30:55;;;;;;;16.00;9.75;;;461.70;2380.80;;;;;;5033126;28;20482;-82
2022/09/30 07:33:22;;;;;;;12.93;9.13;;;461.70;2022.40;;;;;;5037507;28;20025;-82
2022/09/30 07:35:55;;;;;;;20.25;12.88;;;486.40;2380.80;;;;;;5034982;28;20108;-82
2022/09/30 07:38:24;;;;;;;18.42;11.18;;;461.70;2380.80;;;;;;5035418;28;20040;-81
2022/09/30 07:41:11;;;;;;;17.90;10.45;;;486.40;2380.80;;;;;;5059617;28;20029;-79
2022/09/30 07:43:39;;;;;;;24.52;9.68;;;486.40;2073.60;;;;;;5072838;28;20055;-81
2022/09/30 07:46:09;;;;;;;13.35;7.50;;;486.50;2380.80;;;;;;5054232;28;20028;-79
2022/09/30 07:48:45;;;;;;;17.83;8.63;;;486.50;2380.80;;;;;;5073667;28;20082;-81
2022/09/30 07:51:16;;;;;;;12.20;8.70;;;486.60;2380.80;;;;;;5047765;28;20528;-81
2022/09/30 07:53:44;;;;;;;12.65;7.97;;;486.70;2380.80;;;;;;5031277;28;20056;-79
2022/09/30 07:56:11;;;;;;;11.15;8.27;;;486.70;2380.80;;;;;;5032477;28;20036;-82
2022/09/30 07:58:37;;;;;;;14.55;8.80;;;486.80;2099.20;;;;;;5034492;28;20091;-80
2022/09/30 08:01:07;;;;;;;14.27;8.93;;;486.80;2380.80;;;;;;5034231;28;20020;-79
2022/09/30 08:03:38;;;;;;;13.82;8.48;;;487.00;2380.80;;;;;;5033774;28;20028;-81
2022/09/30 08:06:10;;;;;;;11.65;8.25;;;487.00;2380.80;;;;;;5048845;28;20124;-81
2022/09/30 08:08:35;;;;;;;19.85;9.93;;;486.90;2380.80;;;;;;5031665;28;20483;-80
2022/09/30 08:11:03;;;;;;;16.33;10.05;;;487.00;2380.80;;;;;;5015617;28;20033;-80
2022/09/30 08:13:29;;;;;;;14.10;8.82;;;487.00;2380.80;;;;;;5050972;28;20474;-79
2022/09/30 08:15:55;;;;;;;12.68;7.60;;;487.00;2380.80;;;;;;5070686;28;20040;-79
2022/09/30 08:18:21;;;;;;;15.43;7.38;;;487.00;2380.80;;;;;;5067336;28;20075;-81
2022/09/30 08:20:47;;;;;;;10.68;7.30;;;;;;;;;;5046150;28;20025;-79
2022/09/30 08:23:13;;;;;;;9.02;7.03;;;;;;;;;;5056829;28;20025;-79
2022/09/30 08:25:40;;;;;;;11.18;7.30;;;;;;;;;;5046009;28;20025;-81
2022/09/30 08:28:05;;;;;;;7.60;6.65;;;487.10;2380.80;;;;;;5048901;28;20029;-81
2022/09/30 08:30:34;;;;;;;8.38;7.40;;;487.10;2380.80;;;;;;5047967;28;20036;-79
2022/09/30 08:33:00;;;;;;;11.10;8.50;;;487.10;2380.80;;;;;;5039859;28;20458;-78
2022/09/30 08:35:26;;;;;;;12.98;7.20;;;487.10;2380.80;;;;;;5070740;28;20070;-79
2022/09/30 08:37:53;;;;;;;11.77;8.32;;;487.10;2380.80;;;;;;5055000;28;20375;-79
2022/09/30 08:40:27;;;;;;;14.13;8.73;;;487.20;2380.80;;;;;;5039676;28;20062;-79
2022/09/30 08:43:17;;;;;;;13.85;9.68;;;512.10;2380.80;;;;;;5036298;28;20056;-80
2022/09/30 08:45:43;;;;;;;10.68;8.63;;;487.30;2380.80;;;;;;5039997;28;20536;-82
2022/09/30 08:48:24;;;;;;;17.92;10.50;;;;;;;;;;5029575;28;20033;-81
2022/09/30 08:50:50;;;;;;;15.73;9.02;;;;;;;;;;5031180;28;20409;-80
2022/09/30 08:53:24;;;;;;;12.30;8.93;;;;;;;;;;5055267;28;20035;-81
2022/09/30 08:55:52;;;;;;;12.98;8.63;;;;;;;;;;5042744;28;20029;-80
2022/09/30 08:58:25;;;;;;;16.13;9.18;;;;;;;;;;5071127;28;20025;-79
2022/09/30 09:00:54;;;;;;;19.90;10.85;;;;;;;;;;5049580;28;20044;-78
2022/09/30 09:03:22;;;;;;;12.93;9.30;;;;;;;;;;5051586;28;20045;-79
2022/09/30 09:06:00;;;;;;;17.23;10.40;;;;;;;;;;5048909;28;20509;-82
2022/09/30 09:08:33;;;;;;;11.35;8.43;;;;;;;;;;5054009;28;20450;-80
2022/09/30 09:11:02;;;;;;;15.18;9.23;;;;;;;;;;5070610;28;20056;-80
2022/09/30 09:13:32;;;;;;;12.05;6.63;;;;;;;;;;5035959;28;20041;-80
2022/09/30 09:16:30;;;;;;;13.98;9.07;;;563.70;2432.00;;;;;;5037662;28;20036;-80
2022/09/30 09:19:11;;;;;;;14.32;8.63;;;563.70;2432.00;;;;;;5055211;28;20125;-80
2022/09/30 09:21:52;;;;;;;12.27;8.63;;;563.70;2432.00;;;;;;5021256;28;20035;-80
2022/09/30 09:24:22;;;;;;;12.88;7.30;;;563.70;2432.00;;;;;;5037446;28;20036;-81
2022/09/30 09:26:50;;;;;;;10.48;7.25;;;563.70;2432.00;;;;;;5037378;28;20041;-80
2022/09/30 09:29:40;;;;;;;10.63;6.43;;;563.90;2432.00;;;;;;5036054;28;20032;-80
2022/09/30 09:32:13;;;;;;;12.07;6.65;;;588.80;2432.00;;;;;;5037266;28;20029;-80
2022/09/30 09:34:42;;;;;;;9.50;5.35;;;588.90;2432.00;;;;;;5034945;28;20087;-80
2022/09/30 09:38:23;;;;;;;9.30;5.20;;;589.00;2432.00;;;;;;5052867;28;20107;-80
2022/09/30 09:40:39;;;;;;;8.30;5.35;;;589.20;2432.00;;;;;;5052994;28;20490;-81
2022/09/30 09:43:23;;;;;;;8.80;4.85;;;589.40;2432.00;;;;;;5048858;28;20065;-81
2022/09/30 09:46:02;;;;;;;6.55;4.07;;;589.40;2432.00;;;;;;5068036;28;20022;-81
2022/09/30 09:48:29;;;;;;;15.38;5.50;;;589.70;2432.00;;;;;;5029697;28;20029;-80
2022/09/30 09:51:03;;;;;;;9.20;4.68;;;;;;;;;;5029638;28;20031;-79
2022/09/30 09:53:44;;;;;;;7.03;3.60;;;614.80;2432.00;;;;;;5033993;28;20033;-79
2022/09/30 09:56:21;;;;;;;10.18;4.13;;;614.80;2432.00;;;;;;5031536;28;20061;-80
2022/09/30 09:59:08;;;;;;;9.60;4.03;;;614.80;2432.00;;;;;;5033059;28;20029;-80
2022/09/30 10:01:36;;;;;;;6.90;2.50;;;614.80;2432.00;;;;;;5031050;28;20030;-80
2022/09/30 10:04:09;;;;;;;7.38;3.10;;;615.00;2432.00;;;;;;5033247;28;20018;-80
2022/09/30 10:06:51;;;;;;;5.40;2.40;;;615.30;2432.00;;;;;;5033717;28;20032;-80
2022/09/30 10:09:24;;;;;;;8.68;2.53;;;;;;;;;;5036300;28;20422;-80
2022/09/30 10:11:50;;;;;;;7.60;2.25;;;;;;;;;;5033253;28;20025;-82
2022/09/30 10:14:20;;;;;;;7.15;2.47;;;;;;;;;;5032474;28;20021;-81
2022/09/30 10:16:46;;;;;;;8.60;2.53;;;;;;;;;;5031373;28;21775;-81
2022/09/30 10:19:18;;;;;;;6.38;2.13;;;;;;;;;;5032604;28;20017;-80
2022/09/30 10:21:45;;;;;;;3.50;1.90;;;;;;;;;;5048733;28;21456;-77
2022/09/30 10:24:30;;;;;;;6.38;2.40;;;;;;;;;;5055325;28;20049;-79
2022/09/30 10:26:56;;;;;;;7.88;4.03;;;;;;;;;;5059749;28;20044;-80
2022/09/30 10:29:33;;;;;;;7.60;2.78;;;;;;;;;;5040672;28;20148;-80
2022/09/30 10:32:06;;;;;;;8.27;2.05;;;;;;;;;;5032342;28;20025;-80
2022/09/30 10:34:33;;;;;;;;;;;;;;;;;;5041857;28;20109;-80
2022/09/30 10:37:00;;;;;;;8.02;2.70;;;;;;;;;;5033752;28;19983;-81
2022/09/30 10:39:28;;;;;;;6.28;2.47;;;;;;;;;;5040121;28;20493;-79
2022/09/30 10:42:07;;;;;;;6.82;2.45;;;;;;;;;;5045636;28;20026;-80
2022/09/30 10:44:36;;;;;;;8.38;2.35;;;;;;;;;;5034472;28;20132;-79
2022/09/30 10:47:03;;;;;;;6.40;2.25;;;;;;;;;;5028781;28;20156;-81
2022/09/30 10:49:58;;;;;;;13.02;4.47;;;;;;;;;;5046154;28;20109;-78
2022/09/30 10:52:29;;;;;;;10.98;4.25;;;;;;;;;;5022815;28;20122;-79
2022/09/30 10:54:59;;;;;;;17.08;7.40;;;;;;;;;;5032954;28;20137;-78
2022/09/30 10:57:31;;;;;;;8.27;4.20;;;;;;;;;;5048685;28;20494;-81
2022/09/30 10:59:59;;;;;;;9.25;3.13;;;;;;;;;;5034205;28;20068;-79
2022/09/30 11:02:47;;;;;;;7.60;2.85;;;;;;;;;;5050147;28;20034;-78
2022/09/30 11:05:17;;;;;;;5.38;2.67;;;;;;;;;;5035122;28;20021;-79
2022/09/30 11:07:58;;;;;;;5.20;1.90;;;;;;;;;;5049735;28;20033;-78
2022/09/30 11:10:33;;;;;;;8.37;2.50;;;;;;;;;;5027774;28;20028;-78
2022/09/30 11:13:05;;;;;;;8.10;2.53;;;;;;;;;;5032114;28;20021;-78
2022/09/30 11:15:50;;;;;;;6.40;2.80;;;;;;;;;;5043594;28;20734;-79
2022/09/30 11:18:24;;;;;;;6.47;2.65;;;691.30;2048.00;;;;;;5049515;28;20025;-79
2022/09/30 11:20:53;;;;;;;5.43;2.30;;;;;;;;;;5030339;28;20034;-79
2022/09/30 11:23:31;;;;;;;7.50;2.53;;;691.80;1920.00;;;;;;5047754;28;20769;-80
2022/09/30 11:26:00;;;;;;;8.32;2.60;;;691.70;1945.60;;;;;;5033352;28;20109;-79
2022/09/30 11:29:11;;;;;;;5.15;2.05;;;691.90;1971.20;;;;;;5032787;28;20099;-78
2022/09/30 11:31:50;;;;;;;6.47;2.50;;;716.80;1971.20;;;;;;5012657;28;20042;-78
2022/09/30 11:34:21;;;;;;;8.02;2.30;;;717.00;1971.20;;;;;;5032194;28;20049;-80
2022/09/30 11:36:50;;;;;;;8.33;2.40;;;717.10;1945.60;;;;;;5032670;28;20021;-79
2022/09/30 11:39:45;;;;;;;8.30;2.17;;;717.50;1945.60;;;;;;5064633;28;20301;-76
2022/09/30 11:42:39;;;;;;;7.00;2.15;;;717.60;1894.40;;;;;;5065742;28;20113;-77
2022/09/30 11:45:35;;;;;;;4.75;2.20;;;742.50;1920.00;;;;;;5049496;28;20050;-77
2022/09/30 11:48:30;;;;;;;5.78;2.13;;;742.50;1920.00;;;;;;5018171;28;20069;-78
2022/09/30 11:51:05;;;;;;;13.65;3.42;;;;;;;;;;5054124;28;20081;-80
2022/09/30 11:54:16;;;;;;;7.35;2.33;;;742.80;1920.00;;;;;;5023994;28;20056;-79
2022/09/30 11:56:49;;;;;;;5.75;2.85;;;742.90;1920.00;;;;;;5040547;28;20030;-78
2022/09/30 11:59:27;;;;;;;7.82;2.88;;;743.00;1894.40;;;;;;5060723;28;20018;-79
2022/09/30 12:01:56;;;;;;;9.63;2.75;;;743.00;1868.80;;;;;;5049725;28;20426;-79
2022/09/30 12:04:30;;;;;;;7.40;2.60;;;743.00;1894.40;;;;;;5026493;28;20022;-79
2022/09/30 12:07:19;;;;;;;8.13;2.58;;;743.20;1868.80;;;;;;5011832;28;20041;-80
2022/09/30 12:09:49;;;;;;;7.40;2.53;;;743.20;1843.20;;;;;;5012603;28;20033;-80
2022/09/30 12:12:17;;;;;;;8.43;3.28;;;743.00;1817.60;;;;;;5013635;28;20094;-81
2022/09/30 12:14:43;;;;;;;8.45;3.13;;;743.30;1843.20;;;;;;5012645;28;20074;-81
2022/09/30 12:17:31;;;;;;;8.57;3.00;;;743.30;1792.00;;;;;;5013598;28;20037;-80
2022/09/30 12:20:04;;;;;;;9.20;4.78;;;768.00;1817.60;;;;;;5012752;28;20026;-78
2022/09/30 12:22:38;;;;;;;7.22;2.72;;;768.10;1792.00;;;;;;5012814;28;20030;-79
2022/09/30 12:25:18;;;;;;;8.70;2.95;;;768.10;1766.40;;;;;;5013914;28;20026;-78
2022/09/30 12:27:56;;;;;;;11.30;3.47;;;743.10;1792.00;;;;;;5012502;28;20115;-78
2022/09/30 12:30:23;;;;;;;9.85;4.40;;;743.30;1817.60;;;;;;5013728;28;20026;-80
2022/09/30 12:33:04;;;;;;;8.70;3.95;;;768.00;1792.00;;;;;;5013416;28;20383;-78
2022/09/30 12:35:51;;;;;;;9.05;3.67;;;768.00;1792.00;;;;;;5026541;28;20692;-78
2022/09/30 12:38:28;;;;;;;7.95;2.97;;;768.00;1792.00;;;;;;5065189;28;20042;-78
2022/09/30 12:40:57;;;;;;;9.82;4.18;;;768.00;1817.60;;;;;;5064314;28;20120;-78
2022/09/30 12:43:23;;;;;;;9.02;3.15;;;768.00;1843.20;;;;;;5065077;28;20484;-78
2022/09/30 12:46:07;;;;;;;10.68;3.30;;;743.30;1817.60;;;;;;5033086;28;20033;-78
2022/09/30 12:48:46;;;;;;;13.38;3.78;;;743.30;1817.60;;;;;;5048624;28;20029;-77
2022/09/30 12:51:24;;;;;;;6.25;2.58;;;743.20;1792.00;;;;;;5020836;28;20036;-77
2022/09/30 12:54:04;;;;;;;7.30;2.83;;;742.50;1792.00;;;;;;5013525;28;20029;-78
2022/09/30 12:56:31;;;;;;;6.18;3.60;;;742.60;1817.60;;;;;;5043398;28;20057;-76
2022/09/30 12:58:59;;;;;;;6.95;2.50;;;742.50;1817.60;;;;;;5011862;28;20037;-78
2022/09/30 13:01:35;;;;;;;6.85;2.53;;;742.40;1843.20;;;;;;5013245;28;20057;-76
2022/09/30 13:04:01;;;;;;;5.57;2.25;;;717.40;1792.00;;;;;;5012463;28;20096;-76
2022/09/30 13:06:46;;;;;;;6.93;2.25;;;717.40;1817.60;;;;;;5044843;28;20456;-76
2022/09/30 13:09:15;;;;;;;8.02;2.80;;;717.30;1792.00;;;;;;5011870;28;20034;-78
2022/09/30 13:11:43;;;;;;;8.45;3.22;;;717.60;1792.00;;;;;;5012740;28;20030;-77